Excellence — KTDP — position and weather

sailwx.info

Track history (hours):
 
Tides and Currents Weather Stations Pressure Air Temp Water Temp Dewpoint Dewpoint Depression Visibility Wind Speed Wind Dir Waves Ship Positions

Excellence

Owner: AJVS, INC, Seattle, WA. More information available from US FCC via Universal Licensing System and Coast Guard Vessel Documentation Center.

Last reported at 2016-Nov-05 02:31 UTC. Time now 2016-Dec-08 02:06 UTC.
Position N 47°38' W 122°23'.
Warning: this ship's position is 32 days out of date.

Length 112 m; draft 6 m.

Type: Other ship. MMSI: 338162000.

Date/timePositionNaut miles runAvg speedWind from/ knotsBaromVisibWave heightAir tempDewpointWater temp
2016-Nov-05 02:31N 47°38' W 122°23'0 0.0
2016-Nov-05 01:31N 47°38' W 122°23'0 0.0
2016-Nov-04 23:31N 47°38' W 122°23'0 0.0
2016-Nov-04 22:31N 47°38' W 122°23'0 0.0
2016-Nov-04 21:31N 47°38' W 122°23'0 0.0
2016-Nov-04 20:28N 47°38' W 122°23'0 0.0
2016-Nov-04 18:31N 47°38' W 122°23'0 0.0
2016-Nov-04 16:31N 47°38' W 122°23'3 1.5
2016-Nov-04 14:33N 47°38' W 122°27'14 7.2
2016-Nov-04 12:33N 47°52' W 122°29'37 9.2
2016-Nov-04 08:29N 48°12' W 123°16'1010.2
2016-Nov-04 07:32N 48°13' W 123°31'9 9.0
2016-Nov-04 06:33N 48°13' W 123°44'  
2016-Nov-01 23:33N 46°44' W 124°53'27 8.9
2016-Nov-01 20:33N 46°19' W 124°43'1110.6
2016-Nov-01 19:33N 46°09' W 124°48'57 8.2
2016-Nov-01 12:33N 45°13' W 124°30'  
2016-Oct-27 04:31N 44°34' W 124°44'1 1.4
2016-Oct-27 03:33N 44°35' W 124°44'6 1.9
2016-Oct-27 00:28N 44°29' W 124°46'14 0.7
2016-Oct-26 03:30N 44°43' W 124°52'  
Track history (hours):
 
Tides and Currents Weather Stations Pressure Air Temp Water Temp Dewpoint Dewpoint Depression Visibility Wind Speed Wind Dir Waves Ship Positions

Excellence

Owner: AJVS, INC, Seattle, WA. More information available from US FCC via Universal Licensing System and Coast Guard Vessel Documentation Center.

Last reported at 2016-Nov-05 02:31 UTC. Time now 2016-Dec-08 02:06 UTC.
Position N 47°38' W 122°23'.
Warning: this ship's position is 32 days out of date.

Length 112 m; draft 6 m.

Type: Other ship. MMSI: 338162000.

Date/timePositionNaut miles runAvg speedWind from/ knotsBaromVisibWave heightAir tempDewpointWater temp
2016-Nov-05 02:31N 47°38' W 122°23'0 0.0
2016-Nov-05 01:31N 47°38' W 122°23'0 0.0
2016-Nov-04 23:31N 47°38' W 122°23'0 0.0
2016-Nov-04 22:31N 47°38' W 122°23'0 0.0
2016-Nov-04 21:31N 47°38' W 122°23'0 0.0
2016-Nov-04 20:28N 47°38' W 122°23'0 0.0
2016-Nov-04 18:31N 47°38' W 122°23'0 0.0
2016-Nov-04 16:31N 47°38' W 122°23'3 1.5
2016-Nov-04 14:33N 47°38' W 122°27'14 7.2
2016-Nov-04 12:33N 47°52' W 122°29'37 9.2
2016-Nov-04 08:29N 48°12' W 123°16'1010.2
2016-Nov-04 07:32N 48°13' W 123°31'9 9.0
2016-Nov-04 06:33N 48°13' W 123°44'  
2016-Nov-01 23:33N 46°44' W 124°53'27 8.9
2016-Nov-01 20:33N 46°19' W 124°43'1110.6
2016-Nov-01 19:33N 46°09' W 124°48'57 8.2
2016-Nov-01 12:33N 45°13' W 124°30'  
2016-Oct-27 04:31N 44°34' W 124°44'1 1.4
2016-Oct-27 03:33N 44°35' W 124°44'6 1.9
2016-Oct-27 00:28N 44°29' W 124°46'14 0.7
2016-Oct-26 03:30N 44°43' W 124°52'  

Dump ship's entire track history